createdAt,value
2023-04-23T00:00:38.322Z,26.14
2023-04-23T00:01:38.313Z,26.14
2023-04-23T00:02:38.444Z,26.14
2023-04-23T00:03:38.519Z,26.12
2023-04-23T00:04:38.496Z,26.14
2023-04-23T00:05:38.262Z,26.11
2023-04-23T00:06:38.265Z,26.14
2023-04-23T00:07:38.264Z,26.11
2023-04-23T00:08:38.243Z,26.12
2023-04-23T00:09:38.226Z,26.12
2023-04-23T00:10:38.236Z,26.15
2023-04-23T00:11:38.249Z,26.14
2023-04-23T00:12:38.220Z,26.17
2023-04-23T00:13:38.216Z,26.12
2023-04-23T00:14:38.199Z,26.15
2023-04-23T00:15:38.194Z,26.12
2023-04-23T00:16:38.314Z,26.11
2023-04-23T00:17:38.179Z,26.12
2023-04-23T00:18:38.173Z,26.14
2023-04-23T00:19:38.156Z,26.14
2023-04-23T00:20:38.168Z,26.12
2023-04-23T00:21:38.128Z,26.14
2023-04-23T00:22:38.129Z,26.12
2023-04-23T00:23:38.130Z,26.11
2023-04-23T00:24:38.263Z,26.11
2023-04-23T00:25:38.128Z,26.12
2023-04-23T00:26:38.102Z,26.12
2023-04-23T00:27:38.083Z,26.09
2023-04-23T00:28:38.100Z,26.11
2023-04-23T00:29:38.076Z,26.12
2023-04-23T00:30:38.079Z,26.11
2023-04-23T00:31:38.131Z,26.12
2023-04-23T00:32:38.093Z,26.12
2023-04-23T00:33:38.085Z,26.11
2023-04-23T00:34:38.093Z,26.09
2023-04-23T00:35:38.097Z,26.11
2023-04-23T00:36:38.040Z,26.12
2023-04-23T00:37:38.074Z,26.11
2023-04-23T00:38:38.073Z,26.11
2023-04-23T00:39:38.038Z,26.09
2023-04-23T00:40:38.012Z,26.09
2023-04-23T00:41:38.041Z,26.09
2023-04-23T00:42:38.019Z,26.11
2023-04-23T00:43:38.017Z,26.09
2023-04-23T00:44:38.130Z,26.08
2023-04-23T00:45:38.105Z,26.11
2023-04-23T00:46:38.014Z,26.09
2023-04-23T00:47:38.089Z,26.09
2023-04-23T00:48:37.950Z,26.09
2023-04-23T00:49:37.955Z,26.09
2023-04-23T00:50:37.973Z,26.07
2023-04-23T00:51:37.932Z,26.07
2023-04-23T00:52:37.935Z,26.09
2023-04-23T00:53:37.931Z,26.08
2023-04-23T00:54:37.936Z,26.09
2023-04-23T00:55:37.919Z,26.09
2023-04-23T00:56:37.948Z,26.09
2023-04-23T00:57:37.951Z,26.09
2023-04-23T00:58:37.960Z,26.07
2023-04-23T00:59:37.939Z,26.08
2023-04-23T01:00:37.972Z,26.07
2023-04-23T01:01:38.019Z,26.07
2023-04-23T01:02:38.114Z,26.08
2023-04-23T01:03:38.288Z,26.08
2023-04-23T01:04:38.012Z,26.04
2023-04-23T01:05:38.007Z,26.05
2023-04-23T01:06:37.972Z,26.07
2023-04-23T01:07:37.992Z,26.07
2023-04-23T01:08:37.995Z,26.07
2023-04-23T01:09:37.980Z,26.05
2023-04-23T01:10:38.003Z,26.07
2023-04-23T01:11:37.976Z,26.08
2023-04-23T01:12:38.001Z,26.07
2023-04-23T01:13:38.009Z,26.08
2023-04-23T01:14:38.303Z,26.05
2023-04-23T01:15:37.961Z,26.05
2023-04-23T01:16:38.003Z,26.07
2023-04-23T01:17:37.995Z,26.05
2023-04-23T01:18:37.997Z,26.05
2023-04-23T01:19:37.952Z,26.05
2023-04-23T01:20:37.945Z,26.05
2023-04-23T01:21:37.940Z,26.04
2023-04-23T01:22:37.971Z,26.04
2023-04-23T01:23:37.912Z,26.05
2023-04-23T01:24:37.965Z,26.07
2023-04-23T01:25:37.915Z,26.05
2023-04-23T01:26:37.927Z,26.08
2023-04-23T01:27:37.878Z,26.04
2023-04-23T01:28:37.909Z,26.05
2023-04-23T01:29:37.903Z,26.05
2023-04-23T01:30:37.932Z,26.04
2023-04-23T01:31:37.870Z,26.02
2023-04-23T01:32:37.898Z,26.05
2023-04-23T01:33:37.867Z,26.07
2023-04-23T01:34:37.868Z,26.02
2023-04-23T01:35:37.826Z,26.04
2023-04-23T01:36:37.835Z,26.02
2023-04-23T01:37:37.806Z,26.02
2023-04-23T01:38:37.856Z,26.04
2023-04-23T01:39:37.766Z,26.04
2023-04-23T01:40:37.772Z,26.04
2023-04-23T01:41:37.814Z,26.04
2023-04-23T01:42:37.774Z,26.04
2023-04-23T01:43:37.784Z,26.04
2023-04-23T01:44:37.889Z,26.05
2023-04-23T01:45:37.736Z,26.04
2023-04-23T01:46:37.803Z,26.02
2023-04-23T01:47:37.837Z,26.04
2023-04-23T01:48:37.757Z,26.05
2023-04-23T01:49:37.724Z,26.04
2023-04-23T01:50:37.726Z,26.01
2023-04-23T01:51:37.689Z,26.02
2023-04-23T01:52:37.724Z,26.01
2023-04-23T01:53:37.717Z,26.04
2023-04-23T01:54:37.711Z,26.04
2023-04-23T01:55:37.665Z,26.05
2023-04-23T01:56:37.673Z,26.04
2023-04-23T01:57:37.683Z,26.01
2023-04-23T01:58:37.666Z,26.02
2023-04-23T01:59:37.674Z,26.01
2023-04-23T02:00:37.653Z,26.04
2023-04-23T02:01:37.710Z,26.04
2023-04-23T02:02:37.793Z,26.02
2023-04-23T02:03:37.848Z,26.05
2023-04-23T02:04:37.789Z,26.02
2023-04-23T02:05:37.698Z,26.04
2023-04-23T02:06:37.688Z,26.02
2023-04-23T02:07:37.702Z,26.00
2023-04-23T02:08:37.649Z,26.02
2023-04-23T02:09:37.689Z,26.01
2023-04-23T02:10:37.657Z,26.01
2023-04-23T02:11:37.689Z,26.01
2023-04-23T02:12:37.679Z,26.02
2023-04-23T02:13:37.692Z,26.02
2023-04-23T02:14:37.707Z,26.02
2023-04-23T02:15:37.668Z,26.02
2023-04-23T02:16:37.674Z,26.01
2023-04-23T02:17:37.677Z,26.01
2023-04-23T02:18:37.654Z,25.98
2023-04-23T02:19:37.650Z,26.01
2023-04-23T02:20:37.667Z,26.01
2023-04-23T02:21:37.624Z,26.01
2023-04-23T02:22:37.653Z,26.04
2023-04-23T02:23:37.648Z,26.02
2023-04-23T02:24:37.631Z,26.01
2023-04-23T02:25:37.670Z,25.98
2023-04-23T02:26:37.635Z,26.02
2023-04-23T02:27:37.610Z,26.01
2023-04-23T02:28:37.718Z,25.98
2023-04-23T02:29:37.643Z,26.01
2023-04-23T02:30:37.671Z,26.01
2023-04-23T02:31:37.652Z,25.97
2023-04-23T02:32:37.684Z,26.01
2023-04-23T02:33:37.677Z,26.00
2023-04-23T02:34:37.706Z,26.00
2023-04-23T02:35:37.646Z,25.98
2023-04-23T02:36:37.616Z,26.00
2023-04-23T02:37:37.641Z,26.00
2023-04-23T02:38:37.630Z,26.00
2023-04-23T02:39:37.639Z,26.00
2023-04-23T02:40:38.465Z,25.97
2023-04-23T02:41:37.633Z,25.98
2023-04-23T02:42:37.653Z,26.00
2023-04-23T02:43:37.637Z,26.00
2023-04-23T02:44:37.720Z,25.98
2023-04-23T02:45:37.674Z,25.97
2023-04-23T02:46:37.796Z,25.98
2023-04-23T02:47:37.736Z,25.98
2023-04-23T02:48:37.677Z,25.98
2023-04-23T02:49:37.696Z,25.98
2023-04-23T02:50:37.683Z,25.98
2023-04-23T02:51:37.675Z,25.98
2023-04-23T02:52:37.707Z,25.97
2023-04-23T02:53:37.687Z,25.97
2023-04-23T02:54:37.699Z,25.97
2023-04-23T02:55:37.715Z,25.97
2023-04-23T02:56:37.701Z,25.95
2023-04-23T02:57:37.720Z,25.98
2023-04-23T02:58:37.724Z,25.95
2023-04-23T02:59:37.742Z,25.95
2023-04-23T03:00:37.745Z,25.98
2023-04-23T03:01:37.748Z,25.98
2023-04-23T03:02:37.830Z,25.95
2023-04-23T03:03:37.967Z,25.97
2023-04-23T03:04:37.728Z,25.97
2023-04-23T03:05:37.731Z,25.97
2023-04-23T03:06:37.733Z,25.97
2023-04-23T03:07:37.768Z,25.97
2023-04-23T03:08:37.776Z,25.97
2023-04-23T03:09:37.782Z,25.97
2023-04-23T03:10:37.792Z,25.95
2023-04-23T03:11:37.766Z,25.97
2023-04-23T03:12:37.819Z,25.97
2023-04-23T03:13:37.817Z,25.95
2023-04-23T03:14:37.849Z,25.97
2023-04-23T03:15:37.785Z,25.97
2023-04-23T03:16:37.836Z,25.95
2023-04-23T03:17:37.852Z,25.98
2023-04-23T03:18:37.782Z,25.95
2023-04-23T03:19:37.828Z,25.95
2023-04-23T03:20:37.824Z,25.94
2023-04-23T03:21:37.807Z,25.94
2023-04-23T03:22:37.858Z,25.95
2023-04-23T03:23:37.844Z,25.97
2023-04-23T03:24:37.845Z,25.95
2023-04-23T03:25:37.829Z,25.95
2023-04-23T03:26:37.868Z,25.95
2023-04-23T03:27:39.031Z,25.97
2023-04-23T03:28:37.863Z,25.95
2023-04-23T03:29:37.875Z,25.95
2023-04-23T03:30:37.871Z,25.94
2023-04-23T03:31:37.856Z,25.97
2023-04-23T03:32:37.975Z,25.95
2023-04-23T03:33:37.904Z,25.95
2023-04-23T03:34:37.899Z,25.98
2023-04-23T03:35:37.934Z,25.95
2023-04-23T03:36:37.913Z,25.97
2023-04-23T03:37:37.927Z,25.94
2023-04-23T03:38:37.915Z,25.92
2023-04-23T03:39:37.972Z,25.94
2023-04-23T03:40:37.937Z,25.91
2023-04-23T03:41:37.957Z,25.95
2023-04-23T03:42:37.961Z,25.94
2023-04-23T03:43:37.969Z,25.92
2023-04-23T03:44:37.971Z,25.94
2023-04-23T03:45:37.995Z,25.94
2023-04-23T03:46:38.196Z,25.95
2023-04-23T03:47:38.077Z,25.92
2023-04-23T03:48:38.023Z,25.91
2023-04-23T03:49:38.015Z,25.92
2023-04-23T03:50:38.041Z,25.94
2023-04-23T03:51:38.059Z,25.94
2023-04-23T03:52:38.059Z,25.92
2023-04-23T03:53:38.066Z,25.94
2023-04-23T03:54:38.105Z,25.92
2023-04-23T03:55:38.080Z,25.94
2023-04-23T03:56:38.079Z,25.91
2023-04-23T03:57:38.095Z,25.94
2023-04-23T03:58:38.121Z,25.92
2023-04-23T03:59:38.100Z,25.94
2023-04-23T04:00:38.117Z,25.95
2023-04-23T04:01:38.140Z,25.92
2023-04-23T04:02:38.240Z,25.92
2023-04-23T04:03:38.275Z,25.94
2023-04-23T04:04:38.249Z,25.91
2023-04-23T04:05:38.220Z,25.92
2023-04-23T04:06:38.186Z,25.92
2023-04-23T04:07:38.173Z,25.92
2023-04-23T04:08:38.194Z,25.94
2023-04-23T04:09:38.208Z,25.92
2023-04-23T04:10:38.153Z,25.91
2023-04-23T04:11:38.167Z,25.92
2023-04-23T04:12:38.211Z,25.91
2023-04-23T04:13:38.186Z,25.91
2023-04-23T04:14:38.169Z,25.94
2023-04-23T04:15:38.191Z,25.91
2023-04-23T04:16:38.197Z,25.91
2023-04-23T04:17:38.222Z,25.91
2023-04-23T04:18:38.233Z,25.94
2023-04-23T04:19:38.222Z,25.91
2023-04-23T04:20:38.234Z,25.91
2023-04-23T04:21:38.260Z,25.90
2023-04-23T04:22:38.239Z,25.91
2023-04-23T04:23:38.262Z,25.91
2023-04-23T04:24:38.226Z,25.91
2023-04-23T04:25:38.247Z,25.92
2023-04-23T04:26:38.227Z,25.91
2023-04-23T04:27:38.212Z,25.92
2023-04-23T04:28:38.275Z,25.90
2023-04-23T04:29:38.209Z,25.91
2023-04-23T04:30:38.218Z,25.88
2023-04-23T04:31:38.250Z,25.91
2023-04-23T04:32:38.227Z,25.88
2023-04-23T04:33:38.204Z,25.90
2023-04-23T04:34:38.303Z,25.90
2023-04-23T04:35:38.189Z,25.90
2023-04-23T04:36:38.170Z,25.91
2023-04-23T04:37:38.176Z,25.90
2023-04-23T04:38:38.180Z,25.88
2023-04-23T04:39:38.188Z,25.90
2023-04-23T04:40:38.194Z,25.90
2023-04-23T04:41:38.179Z,25.94
2023-04-23T04:42:38.148Z,25.87
2023-04-23T04:43:38.157Z,25.90
2023-04-23T04:44:38.165Z,25.90
2023-04-23T04:45:38.167Z,25.91
2023-04-23T04:46:38.184Z,25.88
2023-04-23T04:47:38.166Z,25.90
2023-04-23T04:48:38.110Z,25.90
2023-04-23T04:49:38.112Z,25.92
2023-04-23T04:50:38.108Z,25.90
2023-04-23T04:51:38.118Z,25.87
2023-04-23T04:52:38.125Z,25.88
2023-04-23T04:53:38.103Z,25.90
2023-04-23T04:54:38.089Z,25.91
2023-04-23T04:55:38.091Z,25.88
2023-04-23T04:56:38.110Z,25.90
2023-04-23T04:57:38.120Z,25.87
2023-04-23T04:58:38.093Z,25.90
2023-04-23T04:59:38.068Z,25.87
2023-04-23T05:00:38.056Z,25.88
2023-04-23T05:01:38.082Z,25.87
2023-04-23T05:02:38.182Z,25.87
2023-04-23T05:03:38.366Z,25.88
2023-04-23T05:04:38.031Z,25.90
2023-04-23T05:05:38.047Z,25.90
2023-04-23T05:06:38.029Z,25.87
2023-04-23T05:07:38.019Z,25.87
2023-04-23T05:08:38.037Z,25.88
2023-04-23T05:09:38.026Z,25.90
2023-04-23T05:10:38.038Z,25.87
2023-04-23T05:11:37.981Z,25.87
2023-04-23T05:12:38.004Z,25.88
2023-04-23T05:13:37.989Z,25.87
2023-04-23T05:14:38.017Z,25.88
2023-04-23T05:15:38.009Z,25.87
2023-04-23T05:16:38.036Z,25.88
2023-04-23T05:17:38.046Z,25.87
2023-04-23T05:18:37.994Z,25.88
2023-04-23T05:19:37.984Z,25.85
2023-04-23T05:20:37.982Z,25.88
2023-04-23T05:21:37.973Z,25.87
2023-04-23T05:22:37.962Z,25.87
2023-04-23T05:23:37.976Z,25.84
2023-04-23T05:24:37.977Z,25.87
2023-04-23T05:25:37.971Z,25.88
2023-04-23T05:26:37.933Z,25.87
2023-04-23T05:27:37.952Z,25.87
2023-04-23T05:28:37.955Z,25.87
2023-04-23T05:29:37.935Z,25.85
2023-04-23T05:30:37.921Z,25.88
2023-04-23T05:31:37.964Z,25.87
2023-04-23T05:32:38.010Z,25.88
2023-04-23T05:33:49.176Z,25.90
2023-04-23T05:34:39.211Z,25.85
2023-04-23T05:35:37.971Z,25.87
2023-04-23T05:36:37.851Z,25.90
2023-04-23T05:37:37.928Z,25.88
2023-04-23T05:38:37.866Z,25.88
2023-04-23T05:39:37.824Z,25.90
2023-04-23T05:40:37.802Z,25.87
2023-04-23T05:41:37.833Z,25.88
2023-04-23T05:42:37.778Z,25.87
2023-04-23T05:43:37.787Z,25.90
2023-04-23T05:44:37.738Z,25.90
2023-04-23T05:45:37.747Z,25.88
2023-04-23T05:46:37.753Z,25.90
2023-04-23T05:47:37.849Z,25.90
2023-04-23T05:48:37.716Z,25.90
2023-04-23T05:49:37.712Z,25.85
2023-04-23T05:50:37.675Z,25.88
2023-04-23T05:51:37.643Z,25.88
2023-04-23T05:52:37.807Z,25.87
2023-04-23T05:53:38.033Z,25.87
2023-04-23T05:54:37.627Z,25.88
2023-04-23T05:55:37.622Z,25.88
2023-04-23T05:56:37.617Z,25.88
2023-04-23T05:57:37.597Z,25.88
2023-04-23T05:58:37.562Z,25.87
2023-04-23T05:59:37.526Z,25.88
2023-04-23T06:00:37.521Z,25.88
2023-04-23T06:01:37.534Z,25.88
2023-04-23T06:02:37.622Z,25.90
2023-04-23T06:03:38.005Z,25.87
2023-04-23T06:04:37.905Z,25.88
2023-04-23T06:05:37.553Z,25.90
2023-04-23T06:06:37.478Z,25.88
2023-04-23T06:07:37.474Z,25.87
2023-04-23T06:08:37.478Z,25.90
2023-04-23T06:09:37.445Z,25.91
2023-04-23T06:10:37.435Z,25.90
2023-04-23T06:11:37.441Z,25.88
2023-04-23T06:12:37.393Z,25.88
2023-04-23T06:13:37.414Z,25.88
2023-04-23T06:14:37.390Z,25.88
2023-04-23T06:15:37.367Z,25.92
2023-04-23T06:16:37.383Z,25.88
2023-04-23T06:17:37.398Z,25.88
2023-04-23T06:18:37.359Z,25.90
2023-04-23T06:19:37.350Z,25.88
2023-04-23T06:20:37.301Z,25.88
2023-04-23T06:21:37.276Z,25.90
2023-04-23T06:22:37.262Z,25.91
2023-04-23T06:23:37.281Z,25.91
2023-04-23T06:24:37.245Z,25.88
2023-04-23T06:25:37.215Z,25.87
2023-04-23T06:26:37.203Z,25.90
2023-04-23T06:27:37.336Z,25.91
2023-04-23T06:28:37.189Z,25.91
2023-04-23T06:29:37.175Z,25.91
2023-04-23T06:30:37.114Z,25.91
2023-04-23T06:31:37.121Z,25.90
2023-04-23T06:32:37.158Z,25.92
2023-04-23T06:33:37.084Z,25.91
2023-04-23T06:34:43.972Z,25.91
2023-04-23T06:35:38.076Z,25.88
2023-04-23T06:36:37.034Z,25.91
2023-04-23T06:37:37.026Z,25.91
2023-04-23T06:38:37.027Z,25.91
2023-04-23T06:39:36.984Z,25.94
2023-04-23T06:40:37.000Z,25.92
2023-04-23T06:41:36.976Z,25.94
2023-04-23T06:42:36.954Z,25.91
2023-04-23T06:43:36.972Z,25.92
2023-04-23T06:44:36.935Z,25.91
2023-04-23T06:45:36.900Z,25.92
2023-04-23T06:46:36.968Z,25.92
2023-04-23T06:47:36.952Z,25.91
2023-04-23T06:48:36.876Z,25.91
2023-04-23T06:49:36.828Z,25.92
2023-04-23T06:50:36.824Z,25.92
2023-04-23T06:51:36.825Z,25.94
2023-04-23T06:52:36.818Z,25.94
2023-04-23T06:53:36.816Z,25.92
2023-04-23T06:54:36.751Z,25.90
2023-04-23T06:55:36.747Z,25.92
2023-04-23T06:56:36.750Z,25.94
2023-04-23T06:57:36.734Z,25.92
2023-04-23T06:58:36.688Z,25.91
2023-04-23T06:59:36.692Z,25.94
2023-04-23T07:00:36.658Z,25.91
2023-04-23T07:01:36.626Z,25.94
2023-04-23T07:02:36.877Z,25.95
2023-04-23T07:03:36.637Z,25.92
2023-04-23T07:04:36.675Z,25.92
2023-04-23T07:05:36.570Z,25.94
2023-04-23T07:06:36.529Z,25.94
2023-04-23T07:07:36.516Z,25.94
2023-04-23T07:08:36.527Z,25.94
2023-04-23T07:09:36.489Z,25.94
2023-04-23T07:10:36.467Z,25.92
2023-04-23T07:11:36.471Z,25.95
2023-04-23T07:12:36.436Z,25.91
2023-04-23T07:13:36.428Z,25.94
2023-04-23T07:14:36.419Z,25.97
2023-04-23T07:15:36.449Z,25.94
2023-04-23T07:16:36.407Z,25.94
2023-04-23T07:17:36.413Z,25.94
2023-04-23T07:18:36.388Z,25.95
2023-04-23T07:19:36.399Z,25.95
2023-04-23T07:20:36.365Z,25.97
2023-04-23T07:21:36.352Z,25.95
2023-04-23T07:22:36.351Z,25.97
2023-04-23T07:23:36.310Z,25.98
2023-04-23T07:24:36.303Z,25.98
2023-04-23T07:25:36.519Z,25.97
2023-04-23T07:26:36.324Z,25.95
2023-04-23T07:27:36.270Z,25.98
2023-04-23T07:28:36.265Z,25.98
2023-04-23T07:29:36.260Z,25.95
2023-04-23T07:30:36.232Z,25.97
2023-04-23T07:31:36.267Z,26.00
2023-04-23T07:32:36.229Z,25.98
2023-04-23T07:33:36.244Z,26.00
2023-04-23T07:34:36.323Z,25.98
2023-04-23T07:35:36.236Z,26.00
2023-04-23T07:36:36.189Z,26.01
2023-04-23T07:37:36.203Z,26.02
2023-04-23T07:38:36.275Z,25.98
2023-04-23T07:39:36.202Z,26.04
2023-04-23T07:40:36.164Z,26.01
2023-04-23T07:41:36.179Z,26.01
2023-04-23T07:42:36.170Z,26.04
2023-04-23T07:43:36.194Z,26.02
2023-04-23T07:44:36.174Z,26.02
2023-04-23T07:45:36.170Z,26.02
2023-04-23T07:46:36.173Z,26.04
2023-04-23T07:47:36.175Z,26.02
2023-04-23T07:48:36.213Z,26.01
2023-04-23T07:49:36.138Z,26.07
2023-04-23T07:50:36.165Z,26.05
2023-04-23T07:51:36.204Z,26.05
2023-04-23T07:52:36.096Z,26.05
2023-04-23T07:53:36.633Z,26.04
2023-04-23T07:54:36.098Z,26.05
2023-04-23T07:55:36.104Z,26.02
2023-04-23T07:56:36.078Z,26.05
2023-04-23T07:57:36.060Z,26.05
2023-04-23T07:58:36.120Z,26.07
2023-04-23T07:59:36.031Z,26.05
2023-04-23T08:00:36.095Z,26.05
2023-04-23T08:01:36.070Z,26.07
2023-04-23T08:02:36.146Z,26.07
2023-04-23T08:03:36.355Z,26.08
2023-04-23T08:04:36.265Z,26.08
2023-04-23T08:05:36.081Z,26.08
2023-04-23T08:06:36.052Z,26.07
2023-04-23T08:07:36.090Z,26.08
2023-04-23T08:08:36.067Z,26.09
2023-04-23T08:09:36.048Z,26.11
2023-04-23T08:10:36.057Z,26.11
2023-04-23T08:11:36.064Z,26.11
2023-04-23T08:12:36.104Z,26.12
2023-04-23T08:13:36.071Z,26.12
2023-04-23T08:14:36.101Z,26.11
2023-04-23T08:15:36.292Z,26.12
2023-04-23T08:16:38.795Z,26.11
2023-04-23T08:17:36.131Z,26.12
2023-04-23T08:18:36.148Z,26.12
2023-04-23T08:19:36.089Z,26.14
2023-04-23T08:20:36.043Z,26.14
2023-04-23T08:21:36.073Z,26.14
2023-04-23T08:22:36.086Z,26.15
2023-04-23T08:23:36.039Z,26.15
2023-04-23T08:24:36.030Z,26.15
2023-04-23T08:25:36.565Z,26.15
2023-04-23T08:26:35.990Z,26.14
2023-04-23T08:27:35.938Z,26.18
2023-04-23T08:28:35.969Z,26.15
2023-04-23T08:29:35.962Z,26.18
2023-04-23T08:30:35.939Z,26.18
2023-04-23T08:31:35.921Z,26.18
2023-04-23T08:32:35.915Z,26.15
2023-04-23T08:33:35.870Z,26.20
2023-04-23T08:34:35.971Z,26.18
2023-04-23T08:35:35.829Z,26.18
2023-04-23T08:36:35.821Z,26.20
2023-04-23T08:37:35.822Z,26.21
2023-04-23T08:38:35.831Z,26.21
2023-04-23T08:39:35.786Z,26.20
2023-04-23T08:40:35.763Z,26.21
2023-04-23T08:41:35.752Z,26.21
2023-04-23T08:42:35.694Z,26.22
2023-04-23T08:43:35.715Z,26.21
2023-04-23T08:44:35.669Z,26.24
2023-04-23T08:45:35.612Z,26.24
2023-04-23T08:46:35.613Z,26.22
2023-04-23T08:47:35.629Z,26.24
2023-04-23T08:48:35.541Z,26.27
2023-04-23T08:49:35.502Z,26.24
2023-04-23T08:50:35.459Z,26.24
2023-04-23T08:51:35.460Z,26.27
2023-04-23T08:52:35.423Z,26.25
2023-04-23T08:53:35.421Z,26.27
2023-04-23T08:54:35.378Z,26.28
2023-04-23T08:55:35.301Z,26.27
2023-04-23T08:56:35.256Z,26.25
2023-04-23T08:57:35.267Z,26.27
2023-04-23T08:58:35.247Z,26.30
2023-04-23T08:59:35.171Z,26.30
2023-04-23T09:00:35.164Z,26.28
2023-04-23T09:01:35.096Z,26.28
2023-04-23T09:02:35.173Z,26.28
2023-04-23T09:03:35.118Z,26.31
2023-04-23T09:04:35.014Z,26.28
2023-04-23T09:05:34.976Z,26.30
2023-04-23T09:06:34.941Z,26.30
2023-04-23T09:07:34.926Z,26.30
2023-04-23T09:08:34.896Z,26.28
2023-04-23T09:09:34.837Z,26.31
2023-04-23T09:10:34.795Z,26.30
2023-04-23T09:11:34.799Z,26.31
2023-04-23T09:12:34.754Z,26.32
2023-04-23T09:13:34.731Z,26.31
2023-04-23T09:14:34.704Z,26.32
2023-04-23T09:15:34.649Z,26.36
2023-04-23T09:16:34.655Z,26.32
2023-04-23T09:17:34.624Z,26.32
2023-04-23T09:18:34.583Z,26.35
2023-04-23T09:19:34.512Z,26.36
2023-04-23T09:20:34.510Z,26.35
2023-04-23T09:21:34.467Z,26.34
2023-04-23T09:22:34.444Z,26.36
2023-04-23T09:23:34.431Z,26.35
2023-04-23T09:24:34.358Z,26.36
2023-04-23T09:25:34.351Z,26.36
2023-04-23T09:26:34.297Z,26.35
2023-04-23T09:27:34.264Z,26.34
2023-04-23T09:28:34.243Z,26.38
2023-04-23T09:29:34.213Z,26.38
2023-04-23T09:30:34.178Z,26.38
2023-04-23T09:31:34.175Z,26.36
2023-04-23T09:32:34.141Z,26.38
2023-04-23T09:33:34.054Z,26.39
2023-04-23T09:34:34.044Z,26.39
2023-04-23T09:35:33.987Z,26.39
2023-04-23T09:36:33.966Z,26.42
2023-04-23T09:37:33.907Z,26.41
2023-04-23T09:38:33.903Z,26.41
2023-04-23T09:39:33.862Z,26.41
2023-04-23T09:40:33.827Z,26.39
2023-04-23T09:41:33.872Z,26.41
2023-04-23T09:42:33.860Z,26.44
2023-04-23T09:43:33.930Z,26.44
2023-04-23T09:44:33.941Z,26.44
2023-04-23T09:45:33.961Z,26.45
2023-04-23T09:46:33.942Z,26.45
2023-04-23T09:47:33.993Z,26.46
2023-04-23T09:48:33.971Z,26.45
2023-04-23T09:49:33.945Z,26.46
2023-04-23T09:50:33.973Z,26.46
2023-04-23T09:51:33.961Z,26.46
2023-04-23T09:52:33.962Z,26.48
2023-04-23T09:53:33.989Z,26.51
2023-04-23T09:54:33.969Z,26.51
2023-04-23T09:55:33.953Z,26.48
2023-04-23T09:56:33.946Z,26.51
2023-04-23T09:57:33.946Z,26.52
2023-04-23T09:58:33.971Z,26.51
2023-04-23T09:59:46.623Z,26.53
2023-04-23T10:00:34.958Z,26.55
2023-04-23T10:01:33.938Z,26.52
2023-04-23T10:02:33.925Z,26.55
2023-04-23T10:03:33.924Z,26.55
2023-04-23T10:04:34.047Z,26.55
2023-04-23T10:05:45.132Z,26.55
2023-04-23T10:06:44.196Z,26.56
2023-04-23T10:07:34.712Z,26.55
2023-04-23T10:08:33.696Z,26.58
2023-04-23T10:09:33.636Z,26.56
2023-04-23T10:10:36.312Z,26.58
2023-04-23T10:11:34.600Z,26.55
2023-04-23T10:12:52.210Z,26.60
2023-04-23T10:13:34.528Z,26.60
2023-04-23T10:14:33.512Z,26.56
2023-04-23T10:15:33.496Z,26.62
2023-04-23T10:16:42.390Z,26.60
2023-04-23T10:17:34.426Z,26.60
2023-04-23T10:18:33.397Z,26.62
2023-04-23T10:19:33.347Z,26.60
2023-04-23T10:20:33.288Z,26.63
2023-04-23T10:21:42.893Z,26.63
2023-04-23T10:22:34.229Z,26.60
2023-04-23T10:23:33.209Z,26.63
2023-04-23T10:24:33.171Z,26.65
2023-04-23T10:25:33.130Z,26.63
2023-04-23T10:26:33.118Z,26.65
2023-04-23T10:27:40.397Z,26.63
2023-04-23T10:28:34.054Z,26.65
2023-04-23T10:29:32.961Z,26.65
2023-04-23T10:30:32.940Z,26.68
2023-04-23T10:31:33.008Z,26.65
2023-04-23T10:32:32.914Z,26.72
2023-04-23T10:33:37.675Z,26.68
2023-04-23T10:34:33.829Z,26.71
2023-04-23T10:35:32.776Z,26.69
2023-04-23T10:36:32.768Z,26.69
2023-04-23T10:37:32.715Z,26.71
2023-04-23T10:38:32.662Z,26.69
2023-04-23T10:39:32.650Z,26.69
2023-04-23T10:40:32.614Z,26.71
2023-04-23T10:41:32.558Z,26.72
2023-04-23T10:42:32.528Z,26.69
2023-04-23T10:43:32.501Z,26.69
2023-04-23T10:44:50.399Z,26.71
2023-04-23T10:45:33.467Z,26.73
2023-04-23T10:46:32.497Z,26.71
2023-04-23T10:47:32.435Z,26.71
2023-04-23T10:48:32.366Z,26.72
2023-04-23T10:49:32.382Z,26.73
2023-04-23T10:50:32.331Z,26.73
2023-04-23T10:52:33.226Z,26.73
2023-04-23T10:53:32.192Z,26.73
2023-04-23T10:54:32.164Z,26.73
2023-04-23T10:55:32.159Z,26.73
2023-04-23T10:56:32.082Z,26.76
2023-04-23T10:57:32.078Z,26.75
2023-04-23T10:58:32.020Z,26.76
2023-04-23T10:59:31.955Z,26.76
2023-04-23T11:00:31.935Z,26.79
2023-04-23T11:01:31.939Z,26.78
2023-04-23T11:02:32.093Z,26.79
2023-04-23T11:03:32.243Z,26.78
2023-04-23T11:04:32.107Z,26.79
2023-04-23T11:05:32.083Z,26.81
2023-04-23T11:06:32.097Z,26.81
2023-04-23T11:07:32.135Z,26.79
2023-04-23T11:08:32.165Z,26.81
2023-04-23T11:09:32.222Z,26.81
2023-04-23T11:10:32.257Z,26.83
2023-04-23T11:11:32.308Z,26.83
2023-04-23T11:12:32.292Z,26.83
2023-04-23T11:13:32.322Z,26.81
2023-04-23T11:14:32.368Z,26.83
2023-04-23T11:15:32.392Z,26.83
2023-04-23T11:16:32.508Z,26.83
2023-04-23T11:17:32.570Z,26.85
2023-04-23T11:18:32.520Z,26.82
2023-04-23T11:19:32.537Z,26.83
2023-04-23T11:20:32.620Z,26.83
2023-04-23T11:21:32.608Z,26.83
2023-04-23T11:22:32.640Z,26.83
2023-04-23T11:23:32.735Z,26.83
2023-04-23T11:24:32.718Z,26.85
2023-04-23T11:25:32.745Z,26.85
2023-04-23T11:26:32.786Z,26.86
2023-04-23T11:27:32.796Z,26.86
2023-04-23T11:28:32.843Z,26.87
2023-04-23T11:29:32.863Z,26.86
2023-04-23T11:30:32.872Z,26.89
2023-04-23T11:31:32.931Z,26.89
2023-04-23T11:32:32.986Z,26.87
2023-04-23T11:33:32.984Z,26.89
2023-04-23T11:34:33.009Z,26.89
2023-04-23T11:35:33.015Z,26.89
2023-04-23T11:36:33.066Z,26.90
2023-04-23T11:37:33.061Z,26.92
2023-04-23T11:38:33.096Z,26.92
2023-04-23T11:39:33.130Z,26.92
2023-04-23T11:40:33.165Z,26.92
2023-04-23T11:41:33.174Z,26.95
2023-04-23T11:42:33.229Z,26.95
2023-04-23T11:43:33.242Z,26.96
2023-04-23T11:44:33.293Z,26.93
2023-04-23T11:45:33.343Z,26.96
2023-04-23T11:46:33.426Z,26.97
2023-04-23T11:47:33.458Z,26.96
2023-04-23T11:48:33.373Z,26.95
2023-04-23T11:49:33.409Z,26.96
2023-04-23T11:50:33.764Z,26.96
2023-04-23T11:51:33.447Z,26.97
2023-04-23T11:52:33.470Z,26.97
2023-04-23T11:53:33.485Z,26.96
2023-04-23T11:54:33.521Z,26.97
2023-04-23T11:55:33.526Z,26.99
2023-04-23T11:56:33.582Z,26.96
2023-04-23T11:57:33.625Z,27.00
2023-04-23T11:58:33.614Z,27.02
2023-04-23T11:59:33.670Z,26.99
2023-04-23T12:00:33.671Z,26.99
2023-04-23T12:01:33.674Z,27.00
2023-04-23T12:02:33.759Z,27.00
2023-04-23T12:03:33.938Z,26.99
2023-04-23T12:04:33.824Z,27.00
2023-04-23T12:05:33.885Z,26.99
2023-04-23T12:06:33.774Z,27.00
2023-04-23T12:07:33.755Z,27.00
2023-04-23T12:08:33.817Z,27.02
2023-04-23T12:09:33.855Z,27.02
2023-04-23T12:10:33.861Z,27.03
2023-04-23T12:11:33.860Z,27.03
2023-04-23T12:12:33.898Z,27.02
2023-04-23T12:13:34.034Z,27.03
2023-04-23T12:14:33.936Z,27.00
2023-04-23T12:15:33.963Z,27.00
2023-04-23T12:16:33.938Z,27.03
2023-04-23T12:17:34.026Z,27.00
2023-04-23T12:18:34.011Z,27.02
2023-04-23T12:19:34.002Z,27.00
2023-04-23T12:20:34.053Z,27.00
2023-04-23T12:21:34.047Z,27.02
2023-04-23T12:22:34.087Z,27.00
2023-04-23T12:23:34.127Z,27.03
2023-04-23T12:24:34.130Z,27.00
2023-04-23T12:25:34.134Z,27.00
2023-04-23T12:26:34.169Z,27.03
2023-04-23T12:27:34.142Z,27.02
2023-04-23T12:28:34.208Z,27.02
2023-04-23T12:29:34.186Z,27.02
2023-04-23T12:30:34.246Z,27.00
2023-04-23T12:31:34.278Z,27.00
2023-04-23T12:32:34.305Z,27.00
2023-04-23T12:33:34.288Z,27.03
2023-04-23T12:34:34.336Z,27.00
2023-04-23T12:35:34.338Z,27.02
2023-04-23T12:36:34.320Z,27.03
2023-04-23T12:37:34.342Z,27.03
2023-04-23T12:38:34.363Z,27.03
2023-04-23T12:39:34.402Z,27.04
2023-04-23T12:40:34.417Z,27.04
2023-04-23T12:41:34.450Z,27.04
2023-04-23T12:42:34.463Z,27.04
2023-04-23T12:43:34.443Z,27.06
2023-04-23T12:44:34.527Z,27.07
2023-04-23T12:45:35.175Z,27.06
2023-04-23T12:46:34.552Z,27.04
2023-04-23T12:47:34.577Z,27.04
2023-04-23T12:48:34.527Z,27.04
2023-04-23T12:49:34.575Z,27.04
2023-04-23T12:50:34.588Z,27.04
2023-04-23T12:51:34.596Z,27.04
2023-04-23T12:52:34.608Z,27.04
2023-04-23T12:53:34.594Z,27.06